sensor_id;sensor_type;location;lat;lon;timestamp;temperature;humidity
13322;DHT22;6730;46.248;6.930;2023-05-16T00:01:34;12.40;99.90
13322;DHT22;6730;46.248;6.930;2023-05-16T00:04:00;12.40;99.90
13322;DHT22;6730;46.248;6.930;2023-05-16T00:06:25;12.50;99.90
13322;DHT22;6730;46.248;6.930;2023-05-16T00:08:51;12.50;99.90
13322;DHT22;6730;46.248;6.930;2023-05-16T00:11:17;12.60;99.90
13322;DHT22;6730;46.248;6.930;2023-05-16T00:13:43;12.50;99.90
13322;DHT22;6730;46.248;6.930;2023-05-16T00:16:09;12.50;99.90
13322;DHT22;6730;46.248;6.930;2023-05-16T00:18:36;12.40;99.90
13322;DHT22;6730;46.248;6.930;2023-05-16T00:21:05;12.40;99.90
13322;DHT22;6730;46.248;6.930;2023-05-16T00:23:31;12.30;99.90
13322;DHT22;6730;46.248;6.930;2023-05-16T00:25:57;12.40;99.90
13322;DHT22;6730;46.248;6.930;2023-05-16T00:28:22;12.30;99.90
13322;DHT22;6730;46.248;6.930;2023-05-16T00:30:48;12.30;99.90
13322;DHT22;6730;46.248;6.930;2023-05-16T00:33:14;12.20;99.90
13322;DHT22;6730;46.248;6.930;2023-05-16T00:35:39;12.20;99.90
13322;DHT22;6730;46.248;6.930;2023-05-16T00:38:05;12.20;99.90
13322;DHT22;6730;46.248;6.930;2023-05-16T00:40:31;12.10;99.90
13322;DHT22;6730;46.248;6.930;2023-05-16T00:42:57;12.10;99.90
13322;DHT22;6730;46.248;6.930;2023-05-16T00:45:22;12.00;99.90
13322;DHT22;6730;46.248;6.930;2023-05-16T00:47:49;11.90;99.90
13322;DHT22;6730;46.248;6.930;2023-05-16T00:50:16;11.90;99.90
13322;DHT22;6730;46.248;6.930;2023-05-16T00:52:44;11.90;99.90
13322;DHT22;6730;46.248;6.930;2023-05-16T00:55:09;12.00;99.90
13322;DHT22;6730;46.248;6.930;2023-05-16T00:57:39;12.00;99.90
13322;DHT22;6730;46.248;6.930;2023-05-16T01:00:06;12.10;99.90
13322;DHT22;6730;46.248;6.930;2023-05-16T01:02:36;11.90;99.90
13322;DHT22;6730;46.248;6.930;2023-05-16T01:05:02;11.80;99.90
13322;DHT22;6730;46.248;6.930;2023-05-16T01:07:33;11.80;99.90
13322;DHT22;6730;46.248;6.930;2023-05-16T01:10:00;12.00;99.90
13322;DHT22;6730;46.248;6.930;2023-05-16T01:12:47;12.00;99.90
13322;DHT22;6730;46.248;6.930;2023-05-16T01:15:29;11.90;99.90
13322;DHT22;6730;46.248;6.930;2023-05-16T01:18:07;11.90;99.90
13322;DHT22;6730;46.248;6.930;2023-05-16T01:20:43;12.00;99.90
13322;DHT22;6730;46.248;6.930;2023-05-16T01:25:55;12.10;99.90
13322;DHT22;6730;46.248;6.930;2023-05-16T01:28:22;12.20;99.90
13322;DHT22;6730;46.248;6.930;2023-05-16T01:30:49;12.10;99.90
13322;DHT22;6730;46.248;6.930;2023-05-16T01:33:15;12.20;99.90
13322;DHT22;6730;46.248;6.930;2023-05-16T01:35:56;12.20;99.90
13322;DHT22;6730;46.248;6.930;2023-05-16T01:38:26;12.20;99.90
13322;DHT22;6730;46.248;6.930;2023-05-16T01:41:01;12.10;99.90
13322;DHT22;6730;46.248;6.930;2023-05-16T01:43:33;12.10;99.90
13322;DHT22;6730;46.248;6.930;2023-05-16T01:46:09;12.10;99.90
13322;DHT22;6730;46.248;6.930;2023-05-16T01:51:12;12.20;99.90
13322;DHT22;6730;46.248;6.930;2023-05-16T01:53:38;12.20;99.90
13322;DHT22;6730;46.248;6.930;2023-05-16T01:56:08;12.10;99.90
13322;DHT22;6730;46.248;6.930;2023-05-16T01:58:36;12.10;99.90
13322;DHT22;6730;46.248;6.930;2023-05-16T02:01:04;12.00;99.90
13322;DHT22;6730;46.248;6.930;2023-05-16T02:03:30;12.10;99.90
13322;DHT22;6730;46.248;6.930;2023-05-16T02:05:56;12.10;99.90
13322;DHT22;6730;46.248;6.930;2023-05-16T02:08:23;12.20;99.90
13322;DHT22;6730;46.248;6.930;2023-05-16T02:10:49;12.30;99.90
13322;DHT22;6730;46.248;6.930;2023-05-16T02:13:15;12.10;99.90
13322;DHT22;6730;46.248;6.930;2023-05-16T02:15:41;12.00;99.90
13322;DHT22;6730;46.248;6.930;2023-05-16T02:18:07;12.00;99.90
13322;DHT22;6730;46.248;6.930;2023-05-16T02:20:34;12.00;99.90
13322;DHT22;6730;46.248;6.930;2023-05-16T02:22:59;12.20;99.90
13322;DHT22;6730;46.248;6.930;2023-05-16T02:25:25;12.30;99.90
13322;DHT22;6730;46.248;6.930;2023-05-16T02:27:51;12.40;99.90
13322;DHT22;6730;46.248;6.930;2023-05-16T02:30:17;12.40;99.90
13322;DHT22;6730;46.248;6.930;2023-05-16T02:32:42;12.30;99.90
13322;DHT22;6730;46.248;6.930;2023-05-16T02:35:11;12.20;99.90
13322;DHT22;6730;46.248;6.930;2023-05-16T02:37:37;12.40;99.90
13322;DHT22;6730;46.248;6.930;2023-05-16T02:40:03;12.60;99.90
13322;DHT22;6730;46.248;6.930;2023-05-16T02:42:32;12.70;99.90
13322;DHT22;6730;46.248;6.930;2023-05-16T02:44:58;12.70;99.90
13322;DHT22;6730;46.248;6.930;2023-05-16T02:47:24;12.70;99.90
13322;DHT22;6730;46.248;6.930;2023-05-16T02:49:49;12.80;99.90
13322;DHT22;6730;46.248;6.930;2023-05-16T02:52:17;12.70;99.90
13322;DHT22;6730;46.248;6.930;2023-05-16T02:54:43;12.50;99.90
13322;DHT22;6730;46.248;6.930;2023-05-16T02:57:08;12.40;99.90
13322;DHT22;6730;46.248;6.930;2023-05-16T02:59:34;12.30;99.90
13322;DHT22;6730;46.248;6.930;2023-05-16T03:02:01;12.20;99.90
13322;DHT22;6730;46.248;6.930;2023-05-16T03:04:26;12.10;99.90
13322;DHT22;6730;46.248;6.930;2023-05-16T03:06:52;12.10;99.90
13322;DHT22;6730;46.248;6.930;2023-05-16T03:09:18;12.20;99.90
13322;DHT22;6730;46.248;6.930;2023-05-16T03:11:44;12.20;99.90
13322;DHT22;6730;46.248;6.930;2023-05-16T03:14:10;12.30;99.90
13322;DHT22;6730;46.248;6.930;2023-05-16T03:16:37;12.30;99.90
13322;DHT22;6730;46.248;6.930;2023-05-16T03:19:03;12.30;99.90
13322;DHT22;6730;46.248;6.930;2023-05-16T03:21:29;12.50;99.90
13322;DHT22;6730;46.248;6.930;2023-05-16T03:23:56;12.60;99.90
13322;DHT22;6730;46.248;6.930;2023-05-16T03:26:23;12.60;99.90
13322;DHT22;6730;46.248;6.930;2023-05-16T03:28:49;12.50;99.90
13322;DHT22;6730;46.248;6.930;2023-05-16T03:31:16;12.60;99.90
13322;DHT22;6730;46.248;6.930;2023-05-16T03:33:41;12.60;99.90
13322;DHT22;6730;46.248;6.930;2023-05-16T03:36:08;12.50;99.90
13322;DHT22;6730;46.248;6.930;2023-05-16T03:38:34;12.50;99.90
13322;DHT22;6730;46.248;6.930;2023-05-16T03:40:59;12.50;99.90
13322;DHT22;6730;46.248;6.930;2023-05-16T03:43:25;12.30;99.90
13322;DHT22;6730;46.248;6.930;2023-05-16T03:45:51;12.10;99.90
13322;DHT22;6730;46.248;6.930;2023-05-16T03:48:16;12.20;99.90
13322;DHT22;6730;46.248;6.930;2023-05-16T03:50:42;12.30;99.90
13322;DHT22;6730;46.248;6.930;2023-05-16T03:53:08;12.40;99.90
13322;DHT22;6730;46.248;6.930;2023-05-16T03:55:34;12.40;99.90
13322;DHT22;6730;46.248;6.930;2023-05-16T03:57:59;12.10;99.90
13322;DHT22;6730;46.248;6.930;2023-05-16T04:00:25;12.00;99.90
13322;DHT22;6730;46.248;6.930;2023-05-16T04:02:51;11.80;99.90
13322;DHT22;6730;46.248;6.930;2023-05-16T04:05:17;11.70;99.90
13322;DHT22;6730;46.248;6.930;2023-05-16T04:07:42;11.70;99.90
13322;DHT22;6730;46.248;6.930;2023-05-16T04:10:09;11.70;99.90
13322;DHT22;6730;46.248;6.930;2023-05-16T04:12:35;11.80;99.90
13322;DHT22;6730;46.248;6.930;2023-05-16T04:15:02;12.00;99.90
13322;DHT22;6730;46.248;6.930;2023-05-16T04:17:28;12.00;99.90
13322;DHT22;6730;46.248;6.930;2023-05-16T04:19:54;12.10;99.90
13322;DHT22;6730;46.248;6.930;2023-05-16T04:22:20;12.20;99.90
13322;DHT22;6730;46.248;6.930;2023-05-16T04:24:47;12.20;99.90
13322;DHT22;6730;46.248;6.930;2023-05-16T04:27:13;12.20;99.90
13322;DHT22;6730;46.248;6.930;2023-05-16T04:29:39;12.30;99.90
13322;DHT22;6730;46.248;6.930;2023-05-16T04:32:05;12.30;99.90
13322;DHT22;6730;46.248;6.930;2023-05-16T04:34:32;12.30;99.90
13322;DHT22;6730;46.248;6.930;2023-05-16T04:36:58;12.30;99.90
13322;DHT22;6730;46.248;6.930;2023-05-16T04:39:24;12.50;99.90
13322;DHT22;6730;46.248;6.930;2023-05-16T04:41:50;12.60;99.90
13322;DHT22;6730;46.248;6.930;2023-05-16T04:44:16;12.80;99.90
13322;DHT22;6730;46.248;6.930;2023-05-16T04:46:42;12.90;99.90
13322;DHT22;6730;46.248;6.930;2023-05-16T04:49:07;12.90;99.90
13322;DHT22;6730;46.248;6.930;2023-05-16T04:51:33;12.80;99.90
13322;DHT22;6730;46.248;6.930;2023-05-16T04:53:59;12.80;99.90
13322;DHT22;6730;46.248;6.930;2023-05-16T04:56:25;12.80;99.90
13322;DHT22;6730;46.248;6.930;2023-05-16T04:58:53;12.80;99.90
13322;DHT22;6730;46.248;6.930;2023-05-16T05:01:19;12.90;99.90
13322;DHT22;6730;46.248;6.930;2023-05-16T05:03:45;13.00;99.90
13322;DHT22;6730;46.248;6.930;2023-05-16T05:06:10;12.90;99.90
13322;DHT22;6730;46.248;6.930;2023-05-16T05:08:36;12.40;99.90
13322;DHT22;6730;46.248;6.930;2023-05-16T05:11:02;12.00;99.90
13322;DHT22;6730;46.248;6.930;2023-05-16T05:13:28;11.60;99.90
13322;DHT22;6730;46.248;6.930;2023-05-16T05:15:53;11.20;99.90
13322;DHT22;6730;46.248;6.930;2023-05-16T05:18:19;11.00;99.90
13322;DHT22;6730;46.248;6.930;2023-05-16T05:20:45;10.80;99.90
13322;DHT22;6730;46.248;6.930;2023-05-16T05:23:10;10.90;99.90
13322;DHT22;6730;46.248;6.930;2023-05-16T05:25:37;11.20;99.90
13322;DHT22;6730;46.248;6.930;2023-05-16T05:28:03;11.30;99.90
13322;DHT22;6730;46.248;6.930;2023-05-16T05:30:28;11.10;99.90
13322;DHT22;6730;46.248;6.930;2023-05-16T05:32:54;11.00;99.90
13322;DHT22;6730;46.248;6.930;2023-05-16T05:35:20;10.90;99.90
13322;DHT22;6730;46.248;6.930;2023-05-16T05:37:46;10.90;99.90
13322;DHT22;6730;46.248;6.930;2023-05-16T05:40:13;10.90;99.90
13322;DHT22;6730;46.248;6.930;2023-05-16T05:42:38;10.80;99.90
13322;DHT22;6730;46.248;6.930;2023-05-16T05:45:04;10.70;99.90
13322;DHT22;6730;46.248;6.930;2023-05-16T05:47:31;10.70;99.90
13322;DHT22;6730;46.248;6.930;2023-05-16T05:49:57;10.70;99.90
13322;DHT22;6730;46.248;6.930;2023-05-16T05:52:23;10.70;99.90
13322;DHT22;6730;46.248;6.930;2023-05-16T05:54:49;10.70;99.90
13322;DHT22;6730;46.248;6.930;2023-05-16T05:57:14;11.00;99.90
13322;DHT22;6730;46.248;6.930;2023-05-16T05:59:40;11.30;99.90
13322;DHT22;6730;46.248;6.930;2023-05-16T06:02:07;11.20;99.90
13322;DHT22;6730;46.248;6.930;2023-05-16T06:04:32;11.30;99.90
13322;DHT22;6730;46.248;6.930;2023-05-16T06:06:58;11.80;99.90
13322;DHT22;6730;46.248;6.930;2023-05-16T06:09:24;12.00;99.90
13322;DHT22;6730;46.248;6.930;2023-05-16T06:11:49;11.70;99.90
13322;DHT22;6730;46.248;6.930;2023-05-16T06:14:15;11.20;99.90
13322;DHT22;6730;46.248;6.930;2023-05-16T06:16:41;11.00;99.90
13322;DHT22;6730;46.248;6.930;2023-05-16T06:19:07;10.90;99.90
13322;DHT22;6730;46.248;6.930;2023-05-16T06:21:33;10.80;99.90
13322;DHT22;6730;46.248;6.930;2023-05-16T06:23:59;10.80;99.90
13322;DHT22;6730;46.248;6.930;2023-05-16T06:26:25;10.80;99.90
13322;DHT22;6730;46.248;6.930;2023-05-16T06:28:51;10.80;99.90
13322;DHT22;6730;46.248;6.930;2023-05-16T06:31:16;10.70;99.90
13322;DHT22;6730;46.248;6.930;2023-05-16T06:33:42;10.80;99.90
13322;DHT22;6730;46.248;6.930;2023-05-16T06:36:08;10.90;99.90
13322;DHT22;6730;46.248;6.930;2023-05-16T06:38:33;11.10;99.90
13322;DHT22;6730;46.248;6.930;2023-05-16T06:40:59;11.30;99.90
13322;DHT22;6730;46.248;6.930;2023-05-16T06:43:24;11.50;99.90
13322;DHT22;6730;46.248;6.930;2023-05-16T06:45:50;11.70;99.90
13322;DHT22;6730;46.248;6.930;2023-05-16T06:48:17;11.60;99.90
13322;DHT22;6730;46.248;6.930;2023-05-16T06:50:47;11.60;99.90
13322;DHT22;6730;46.248;6.930;2023-05-16T06:53:12;11.70;99.90
13322;DHT22;6730;46.248;6.930;2023-05-16T06:55:38;11.90;99.90
13322;DHT22;6730;46.248;6.930;2023-05-16T06:58:04;12.10;99.90
13322;DHT22;6730;46.248;6.930;2023-05-16T07:00:30;12.50;99.90
13322;DHT22;6730;46.248;6.930;2023-05-16T07:02:55;12.90;99.90
13322;DHT22;6730;46.248;6.930;2023-05-16T07:05:21;13.40;99.90
13322;DHT22;6730;46.248;6.930;2023-05-16T07:07:47;13.20;99.90
13322;DHT22;6730;46.248;6.930;2023-05-16T07:10:14;12.70;99.90
13322;DHT22;6730;46.248;6.930;2023-05-16T07:12:41;12.30;99.90
13322;DHT22;6730;46.248;6.930;2023-05-16T07:15:07;12.30;99.90
13322;DHT22;6730;46.248;6.930;2023-05-16T07:17:33;12.70;99.90
13322;DHT22;6730;46.248;6.930;2023-05-16T07:19:59;13.00;99.90
13322;DHT22;6730;46.248;6.930;2023-05-16T07:22:24;13.20;99.90
13322;DHT22;6730;46.248;6.930;2023-05-16T07:24:50;13.30;99.90
13322;DHT22;6730;46.248;6.930;2023-05-16T07:27:18;13.40;99.90
13322;DHT22;6730;46.248;6.930;2023-05-16T07:29:44;13.00;99.90
13322;DHT22;6730;46.248;6.930;2023-05-16T07:32:10;12.80;99.90
13322;DHT22;6730;46.248;6.930;2023-05-16T07:34:35;12.80;99.90
13322;DHT22;6730;46.248;6.930;2023-05-16T07:37:01;13.00;99.90
13322;DHT22;6730;46.248;6.930;2023-05-16T07:39:28;12.90;99.90
13322;DHT22;6730;46.248;6.930;2023-05-16T07:41:53;12.90;99.90
13322;DHT22;6730;46.248;6.930;2023-05-16T07:44:20;12.90;99.90
13322;DHT22;6730;46.248;6.930;2023-05-16T07:46:45;12.80;99.90
13322;DHT22;6730;46.248;6.930;2023-05-16T07:49:11;12.80;99.90
13322;DHT22;6730;46.248;6.930;2023-05-16T07:51:37;12.50;99.90
13322;DHT22;6730;46.248;6.930;2023-05-16T07:54:02;12.20;99.90
13322;DHT22;6730;46.248;6.930;2023-05-16T07:56:28;12.30;99.90
13322;DHT22;6730;46.248;6.930;2023-05-16T07:58:54;12.30;99.90
13322;DHT22;6730;46.248;6.930;2023-05-16T08:01:20;12.50;99.90
13322;DHT22;6730;46.248;6.930;2023-05-16T08:03:45;12.70;99.90
13322;DHT22;6730;46.248;6.930;2023-05-16T08:06:11;12.70;99.90
13322;DHT22;6730;46.248;6.930;2023-05-16T08:08:36;12.50;99.90
13322;DHT22;6730;46.248;6.930;2023-05-16T08:11:02;12.70;99.90
13322;DHT22;6730;46.248;6.930;2023-05-16T08:13:29;12.60;99.90
13322;DHT22;6730;46.248;6.930;2023-05-16T08:15:56;12.60;99.90
13322;DHT22;6730;46.248;6.930;2023-05-16T08:18:21;12.80;99.90
13322;DHT22;6730;46.248;6.930;2023-05-16T08:20:47;12.90;99.90
13322;DHT22;6730;46.248;6.930;2023-05-16T08:23:13;13.00;99.90
13322;DHT22;6730;46.248;6.930;2023-05-16T08:25:39;12.90;99.90
13322;DHT22;6730;46.248;6.930;2023-05-16T08:28:04;13.00;99.90
13322;DHT22;6730;46.248;6.930;2023-05-16T08:30:30;13.10;99.90
13322;DHT22;6730;46.248;6.930;2023-05-16T08:32:56;13.20;99.90
13322;DHT22;6730;46.248;6.930;2023-05-16T08:35:22;13.20;99.90
13322;DHT22;6730;46.248;6.930;2023-05-16T08:37:47;13.20;99.90
13322;DHT22;6730;46.248;6.930;2023-05-16T08:40:13;13.40;99.90
13322;DHT22;6730;46.248;6.930;2023-05-16T08:42:40;13.60;99.90
13322;DHT22;6730;46.248;6.930;2023-05-16T08:45:06;13.60;99.90
13322;DHT22;6730;46.248;6.930;2023-05-16T08:47:32;13.70;99.90
13322;DHT22;6730;46.248;6.930;2023-05-16T08:50:02;13.70;99.90
13322;DHT22;6730;46.248;6.930;2023-05-16T08:52:30;13.80;99.90
13322;DHT22;6730;46.248;6.930;2023-05-16T08:54:58;13.90;99.90
13322;DHT22;6730;46.248;6.930;2023-05-16T08:57:26;13.70;99.90
13322;DHT22;6730;46.248;6.930;2023-05-16T08:59:52;13.60;99.90
13322;DHT22;6730;46.248;6.930;2023-05-16T09:02:20;13.50;99.90
13322;DHT22;6730;46.248;6.930;2023-05-16T09:04:48;13.40;99.90
13322;DHT22;6730;46.248;6.930;2023-05-16T09:07:14;13.30;99.90
13322;DHT22;6730;46.248;6.930;2023-05-16T09:09:40;13.10;99.90
13322;DHT22;6730;46.248;6.930;2023-05-16T09:12:07;13.00;99.90
13322;DHT22;6730;46.248;6.930;2023-05-16T09:14:33;12.90;99.90
13322;DHT22;6730;46.248;6.930;2023-05-16T09:17:04;12.60;99.90
13322;DHT22;6730;46.248;6.930;2023-05-16T09:19:38;12.40;99.90
13322;DHT22;6730;46.248;6.930;2023-05-16T09:22:06;12.30;99.90
13322;DHT22;6730;46.248;6.930;2023-05-16T09:24:32;12.40;99.90
13322;DHT22;6730;46.248;6.930;2023-05-16T09:27:07;12.50;99.90
13322;DHT22;6730;46.248;6.930;2023-05-16T09:29:33;12.60;99.90
13322;DHT22;6730;46.248;6.930;2023-05-16T09:32:13;12.60;99.90
13322;DHT22;6730;46.248;6.930;2023-05-16T09:34:47;12.70;99.90
13322;DHT22;6730;46.248;6.930;2023-05-16T09:37:18;12.80;99.90
13322;DHT22;6730;46.248;6.930;2023-05-16T09:39:47;12.80;99.90
13322;DHT22;6730;46.248;6.930;2023-05-16T09:42:14;12.80;99.90
13322;DHT22;6730;46.248;6.930;2023-05-16T09:44:41;12.80;99.90
13322;DHT22;6730;46.248;6.930;2023-05-16T09:47:10;12.90;99.90
13322;DHT22;6730;46.248;6.930;2023-05-16T09:49:38;12.80;99.90
13322;DHT22;6730;46.248;6.930;2023-05-16T09:52:04;13.00;99.90
13322;DHT22;6730;46.248;6.930;2023-05-16T09:54:34;13.00;99.90
13322;DHT22;6730;46.248;6.930;2023-05-16T09:57:00;13.00;99.90
13322;DHT22;6730;46.248;6.930;2023-05-16T09:59:44;13.10;99.90
13322;DHT22;6730;46.248;6.930;2023-05-16T10:02:10;13.30;99.90
13322;DHT22;6730;46.248;6.930;2023-05-16T10:04:37;13.60;99.90
13322;DHT22;6730;46.248;6.930;2023-05-16T10:07:03;14.00;99.90
13322;DHT22;6730;46.248;6.930;2023-05-16T10:09:33;14.00;99.90
13322;DHT22;6730;46.248;6.930;2023-05-16T10:12:03;13.70;99.90
13322;DHT22;6730;46.248;6.930;2023-05-16T10:14:33;13.40;99.90
13322;DHT22;6730;46.248;6.930;2023-05-16T10:16:59;13.30;99.90
13322;DHT22;6730;46.248;6.930;2023-05-16T10:19:25;13.20;99.90
13322;DHT22;6730;46.248;6.930;2023-05-16T10:21:56;13.20;99.90
13322;DHT22;6730;46.248;6.930;2023-05-16T10:24:53;13.10;99.90
13322;DHT22;6730;46.248;6.930;2023-05-16T10:27:16;13.10;99.90
13322;DHT22;6730;46.248;6.930;2023-05-16T10:29:43;13.10;99.90
13322;DHT22;6730;46.248;6.930;2023-05-16T10:32:09;13.10;99.90
13322;DHT22;6730;46.248;6.930;2023-05-16T10:34:36;13.20;99.90
13322;DHT22;6730;46.248;6.930;2023-05-16T10:37:04;13.40;99.90
13322;DHT22;6730;46.248;6.930;2023-05-16T10:39:31;13.30;99.90
13322;DHT22;6730;46.248;6.930;2023-05-16T10:41:57;13.10;99.90
13322;DHT22;6730;46.248;6.930;2023-05-16T10:44:24;13.20;99.90
13322;DHT22;6730;46.248;6.930;2023-05-16T10:46:50;13.40;99.90
13322;DHT22;6730;46.248;6.930;2023-05-16T10:49:23;13.60;99.90
13322;DHT22;6730;46.248;6.930;2023-05-16T10:52:10;13.60;99.90
13322;DHT22;6730;46.248;6.930;2023-05-16T10:54:38;13.30;99.90
13322;DHT22;6730;46.248;6.930;2023-05-16T10:57:09;13.10;99.90
13322;DHT22;6730;46.248;6.930;2023-05-16T10:59:40;13.00;99.90
13322;DHT22;6730;46.248;6.930;2023-05-16T11:02:21;12.90;99.90
13322;DHT22;6730;46.248;6.930;2023-05-16T11:04:54;12.80;99.90
13322;DHT22;6730;46.248;6.930;2023-05-16T11:07:21;12.70;99.90
13322;DHT22;6730;46.248;6.930;2023-05-16T11:10:06;12.60;99.90
13322;DHT22;6730;46.248;6.930;2023-05-16T11:12:37;12.80;99.90
13322;DHT22;6730;46.248;6.930;2023-05-16T11:17:45;13.10;99.90
13322;DHT22;6730;46.248;6.930;2023-05-16T11:20:30;13.30;99.90
13322;DHT22;6730;46.248;6.930;2023-05-16T11:23:17;13.40;99.90
13322;DHT22;6730;46.248;6.930;2023-05-16T11:25:55;13.50;99.90
13322;DHT22;6730;46.248;6.930;2023-05-16T11:28:23;13.90;99.90
13322;DHT22;6730;46.248;6.930;2023-05-16T11:30:51;13.80;99.90
13322;DHT22;6730;46.248;6.930;2023-05-16T11:33:23;13.40;99.90
13322;DHT22;6730;46.248;6.930;2023-05-16T11:36:08;13.20;99.90
13322;DHT22;6730;46.248;6.930;2023-05-16T11:38:36;13.00;99.90
13322;DHT22;6730;46.248;6.930;2023-05-16T11:41:03;13.00;99.90
13322;DHT22;6730;46.248;6.930;2023-05-16T11:43:29;13.00;99.90
13322;DHT22;6730;46.248;6.930;2023-05-16T11:46:01;12.90;99.90
13322;DHT22;6730;46.248;6.930;2023-05-16T11:48:26;13.00;99.90
13322;DHT22;6730;46.248;6.930;2023-05-16T11:50:52;13.00;99.90
13322;DHT22;6730;46.248;6.930;2023-05-16T11:53:18;13.10;99.90
13322;DHT22;6730;46.248;6.930;2023-05-16T11:55:44;13.00;99.90
13322;DHT22;6730;46.248;6.930;2023-05-16T11:58:11;12.90;99.90
13322;DHT22;6730;46.248;6.930;2023-05-16T12:00:46;12.70;99.90
13322;DHT22;6730;46.248;6.930;2023-05-16T12:03:12;12.60;99.90
13322;DHT22;6730;46.248;6.930;2023-05-16T12:05:38;12.70;99.90
13322;DHT22;6730;46.248;6.930;2023-05-16T12:08:04;12.70;99.90
13322;DHT22;6730;46.248;6.930;2023-05-16T12:10:31;12.90;99.90
13322;DHT22;6730;46.248;6.930;2023-05-16T12:12:58;13.00;99.90
13322;DHT22;6730;46.248;6.930;2023-05-16T12:15:24;13.00;99.90
13322;DHT22;6730;46.248;6.930;2023-05-16T12:17:50;13.10;99.90
13322;DHT22;6730;46.248;6.930;2023-05-16T12:20:16;13.20;99.90
13322;DHT22;6730;46.248;6.930;2023-05-16T12:22:43;13.30;99.90
13322;DHT22;6730;46.248;6.930;2023-05-16T12:25:28;13.30;99.90
13322;DHT22;6730;46.248;6.930;2023-05-16T12:27:56;13.20;99.90
13322;DHT22;6730;46.248;6.930;2023-05-16T12:30:27;13.10;99.90
13322;DHT22;6730;46.248;6.930;2023-05-16T12:33:01;13.10;99.90
13322;DHT22;6730;46.248;6.930;2023-05-16T12:35:31;13.10;99.90
13322;DHT22;6730;46.248;6.930;2023-05-16T12:37:58;13.10;99.90
13322;DHT22;6730;46.248;6.930;2023-05-16T12:40:28;13.00;99.90
13322;DHT22;6730;46.248;6.930;2023-05-16T12:42:54;13.10;99.90
13322;DHT22;6730;46.248;6.930;2023-05-16T12:45:25;13.10;99.90
13322;DHT22;6730;46.248;6.930;2023-05-16T12:47:54;13.20;99.90
13322;DHT22;6730;46.248;6.930;2023-05-16T12:50:20;13.10;99.90
13322;DHT22;6730;46.248;6.930;2023-05-16T12:52:53;13.10;99.90
13322;DHT22;6730;46.248;6.930;2023-05-16T12:55:21;13.10;99.90
13322;DHT22;6730;46.248;6.930;2023-05-16T12:57:48;13.10;99.90
13322;DHT22;6730;46.248;6.930;2023-05-16T13:00:15;13.20;99.90
13322;DHT22;6730;46.248;6.930;2023-05-16T13:02:43;13.20;99.90
13322;DHT22;6730;46.248;6.930;2023-05-16T13:05:10;13.20;99.90
13322;DHT22;6730;46.248;6.930;2023-05-16T13:07:36;13.20;99.90
13322;DHT22;6730;46.248;6.930;2023-05-16T13:10:04;13.10;99.90
13322;DHT22;6730;46.248;6.930;2023-05-16T13:12:31;12.90;99.90
13322;DHT22;6730;46.248;6.930;2023-05-16T13:14:56;12.90;99.90
13322;DHT22;6730;46.248;6.930;2023-05-16T13:17:22;13.00;99.90
13322;DHT22;6730;46.248;6.930;2023-05-16T13:19:48;13.10;99.90
13322;DHT22;6730;46.248;6.930;2023-05-16T13:22:14;13.20;99.90
13322;DHT22;6730;46.248;6.930;2023-05-16T13:24:40;13.00;99.90
13322;DHT22;6730;46.248;6.930;2023-05-16T13:27:06;12.90;99.90
13322;DHT22;6730;46.248;6.930;2023-05-16T13:29:31;12.80;99.90
13322;DHT22;6730;46.248;6.930;2023-05-16T13:31:57;12.80;99.90
13322;DHT22;6730;46.248;6.930;2023-05-16T13:34:23;12.80;99.90
13322;DHT22;6730;46.248;6.930;2023-05-16T13:36:49;12.90;99.90
13322;DHT22;6730;46.248;6.930;2023-05-16T13:39:15;13.00;99.90
13322;DHT22;6730;46.248;6.930;2023-05-16T13:41:40;13.00;99.90
13322;DHT22;6730;46.248;6.930;2023-05-16T13:44:07;12.80;99.90
13322;DHT22;6730;46.248;6.930;2023-05-16T13:46:32;12.80;99.90
13322;DHT22;6730;46.248;6.930;2023-05-16T13:48:58;12.80;99.90
13322;DHT22;6730;46.248;6.930;2023-05-16T13:51:24;12.90;99.90
13322;DHT22;6730;46.248;6.930;2023-05-16T13:53:50;13.00;99.90
13322;DHT22;6730;46.248;6.930;2023-05-16T13:56:16;12.90;99.90
13322;DHT22;6730;46.248;6.930;2023-05-16T13:58:42;13.00;99.90
13322;DHT22;6730;46.248;6.930;2023-05-16T14:01:08;12.90;99.90
13322;DHT22;6730;46.248;6.930;2023-05-16T14:03:33;12.90;99.90
13322;DHT22;6730;46.248;6.930;2023-05-16T14:06:01;12.80;99.90
13322;DHT22;6730;46.248;6.930;2023-05-16T14:08:27;12.70;99.90
13322;DHT22;6730;46.248;6.930;2023-05-16T14:10:53;12.80;99.90
13322;DHT22;6730;46.248;6.930;2023-05-16T14:13:19;12.80;99.90
13322;DHT22;6730;46.248;6.930;2023-05-16T14:15:45;12.90;99.90
13322;DHT22;6730;46.248;6.930;2023-05-16T14:18:11;12.90;99.90
13322;DHT22;6730;46.248;6.930;2023-05-16T14:20:37;12.90;99.90
13322;DHT22;6730;46.248;6.930;2023-05-16T14:23:03;12.90;99.90
13322;DHT22;6730;46.248;6.930;2023-05-16T14:25:29;12.70;99.90
13322;DHT22;6730;46.248;6.930;2023-05-16T14:27:54;12.70;99.90
13322;DHT22;6730;46.248;6.930;2023-05-16T14:30:20;12.60;99.90
13322;DHT22;6730;46.248;6.930;2023-05-16T14:32:46;12.60;99.90
13322;DHT22;6730;46.248;6.930;2023-05-16T14:35:11;12.70;99.90
13322;DHT22;6730;46.248;6.930;2023-05-16T14:37:37;12.60;99.90
13322;DHT22;6730;46.248;6.930;2023-05-16T14:40:03;12.60;99.90
13322;DHT22;6730;46.248;6.930;2023-05-16T14:42:30;12.70;99.90
13322;DHT22;6730;46.248;6.930;2023-05-16T14:44:56;12.70;99.90
13322;DHT22;6730;46.248;6.930;2023-05-16T14:47:22;12.80;99.90
13322;DHT22;6730;46.248;6.930;2023-05-16T14:49:48;12.80;99.90
13322;DHT22;6730;46.248;6.930;2023-05-16T14:52:14;12.80;99.90
13322;DHT22;6730;46.248;6.930;2023-05-16T14:54:40;12.70;99.90
13322;DHT22;6730;46.248;6.930;2023-05-16T14:57:05;12.80;99.90
13322;DHT22;6730;46.248;6.930;2023-05-16T14:59:31;12.80;99.90
13322;DHT22;6730;46.248;6.930;2023-05-16T15:01:57;12.80;99.90
13322;DHT22;6730;46.248;6.930;2023-05-16T15:04:25;12.70;99.90
13322;DHT22;6730;46.248;6.930;2023-05-16T15:06:51;12.70;99.90
13322;DHT22;6730;46.248;6.930;2023-05-16T15:09:16;12.70;99.90
13322;DHT22;6730;46.248;6.930;2023-05-16T15:11:43;12.70;99.90
13322;DHT22;6730;46.248;6.930;2023-05-16T15:14:09;12.80;99.90
13322;DHT22;6730;46.248;6.930;2023-05-16T15:16:34;12.70;99.90
13322;DHT22;6730;46.248;6.930;2023-05-16T15:19:00;12.70;99.90
13322;DHT22;6730;46.248;6.930;2023-05-16T15:21:26;12.60;99.90
13322;DHT22;6730;46.248;6.930;2023-05-16T15:23:51;12.50;99.90
13322;DHT22;6730;46.248;6.930;2023-05-16T15:26:17;12.60;99.90
13322;DHT22;6730;46.248;6.930;2023-05-16T15:28:43;12.80;99.90
13322;DHT22;6730;46.248;6.930;2023-05-16T15:31:09;12.60;99.90
13322;DHT22;6730;46.248;6.930;2023-05-16T15:33:35;12.60;99.90
13322;DHT22;6730;46.248;6.930;2023-05-16T15:36:00;12.60;99.90
13322;DHT22;6730;46.248;6.930;2023-05-16T15:38:26;12.50;99.90
13322;DHT22;6730;46.248;6.930;2023-05-16T15:40:52;12.60;99.90
13322;DHT22;6730;46.248;6.930;2023-05-16T15:43:17;12.60;99.90
13322;DHT22;6730;46.248;6.930;2023-05-16T15:45:43;12.70;99.90
13322;DHT22;6730;46.248;6.930;2023-05-16T15:48:09;12.80;99.90
13322;DHT22;6730;46.248;6.930;2023-05-16T15:50:35;12.90;99.90
13322;DHT22;6730;46.248;6.930;2023-05-16T15:53:01;12.90;99.90